sensor_id;sensor_type;location;lat;lon;timestamp;pressure;altitude;pressure_sealevel;temperature;humidity
43039;BME280;62252;50.668;19.530;2022-11-11T00:02:19;99421.09;;;4.89;100.00
43039;BME280;62252;50.668;19.530;2022-11-11T00:05:14;99439.06;;;4.57;100.00
43039;BME280;62252;50.668;19.530;2022-11-11T00:08:07;99435.25;;;4.77;100.00
43039;BME280;62252;50.668;19.530;2022-11-11T00:11:01;99442.44;;;4.62;100.00
43039;BME280;62252;50.668;19.530;2022-11-11T00:13:54;99442.81;;;4.91;100.00
43039;BME280;62252;50.668;19.530;2022-11-11T00:16:46;99447.63;;;4.65;100.00
43039;BME280;62252;50.668;19.530;2022-11-11T00:19:51;99450.09;;;4.18;100.00
43039;BME280;62252;50.668;19.530;2022-11-11T00:23:05;99457.47;;;4.45;100.00
43039;BME280;62252;50.668;19.530;2022-11-11T00:26:13;99462.53;;;4.55;100.00
43039;BME280;62252;50.668;19.530;2022-11-11T00:29:05;99463.00;;;4.78;100.00
43039;BME280;62252;50.668;19.530;2022-11-11T00:31:58;99467.16;;;4.37;100.00
43039;BME280;62252;50.668;19.530;2022-11-11T00:35:02;99457.94;;;4.69;100.00
43039;BME280;62252;50.668;19.530;2022-11-11T00:38:15;99464.03;;;4.68;100.00
43039;BME280;62252;50.668;19.530;2022-11-11T00:41:26;99461.75;;;4.49;100.00
43039;BME280;62252;50.668;19.530;2022-11-11T00:44:17;99468.47;;;4.63;100.00
43039;BME280;62252;50.668;19.530;2022-11-11T00:47:10;99454.91;;;4.93;100.00
43039;BME280;62252;50.668;19.530;2022-11-11T00:50:16;99457.13;;;5.16;100.00
43039;BME280;62252;50.668;19.530;2022-11-11T00:53:25;99452.94;;;5.07;100.00
43039;BME280;62252;50.668;19.530;2022-11-11T00:56:19;99438.00;;;5.14;100.00
43039;BME280;62252;50.668;19.530;2022-11-11T00:59:12;99425.03;;;5.11;100.00
43039;BME280;62252;50.668;19.530;2022-11-11T01:02:06;99434.44;;;5.20;100.00
43039;BME280;62252;50.668;19.530;2022-11-11T01:04:58;99425.56;;;5.30;100.00
43039;BME280;62252;50.668;19.530;2022-11-11T01:07:51;99426.16;;;5.42;100.00
43039;BME280;62252;50.668;19.530;2022-11-11T01:10:46;99417.00;;;5.23;100.00
43039;BME280;62252;50.668;19.530;2022-11-11T01:13:39;99415.63;;;5.47;100.00
43039;BME280;62252;50.668;19.530;2022-11-11T01:16:31;99419.31;;;5.37;100.00
43039;BME280;62252;50.668;19.530;2022-11-11T01:19:23;99426.91;;;5.04;100.00
43039;BME280;62252;50.668;19.530;2022-11-11T01:22:15;99424.72;;;4.82;100.00
43039;BME280;62252;50.668;19.530;2022-11-11T01:25:07;99437.16;;;5.13;100.00
43039;BME280;62252;50.668;19.530;2022-11-11T01:28:02;99442.41;;;5.12;100.00
43039;BME280;62252;50.668;19.530;2022-11-11T01:31:00;99446.75;;;5.12;100.00
43039;BME280;62252;50.668;19.530;2022-11-11T01:33:52;99427.81;;;5.46;100.00
43039;BME280;62252;50.668;19.530;2022-11-11T01:36:44;99424.91;;;5.60;100.00
43039;BME280;62252;50.668;19.530;2022-11-11T01:39:36;99433.31;;;5.74;100.00
43039;BME280;62252;50.668;19.530;2022-11-11T01:42:45;99430.50;;;5.83;100.00
43039;BME280;62252;50.668;19.530;2022-11-11T01:45:52;99433.44;;;5.68;100.00
43039;BME280;62252;50.668;19.530;2022-11-11T01:48:48;99426.16;;;5.42;100.00
43039;BME280;62252;50.668;19.530;2022-11-11T01:51:58;99424.72;;;5.26;100.00
43039;BME280;62252;50.668;19.530;2022-11-11T01:54:57;99429.50;;;5.49;100.00
43039;BME280;62252;50.668;19.530;2022-11-11T01:57:56;99435.03;;;5.75;100.00
43039;BME280;62252;50.668;19.530;2022-11-11T02:00:55;99437.59;;;5.76;100.00
43039;BME280;62252;50.668;19.530;2022-11-11T02:03:49;99435.34;;;5.19;100.00
43039;BME280;62252;50.668;19.530;2022-11-11T02:07:00;99432.25;;;5.41;100.00
43039;BME280;62252;50.668;19.530;2022-11-11T02:09:57;99444.34;;;5.45;100.00
43039;BME280;62252;50.668;19.530;2022-11-11T02:12:49;99446.94;;;5.45;100.00
43039;BME280;62252;50.668;19.530;2022-11-11T02:15:57;99444.53;;;5.77;100.00
43039;BME280;62252;50.668;19.530;2022-11-11T02:18:50;99442.66;;;5.84;100.00
43039;BME280;62252;50.668;19.530;2022-11-11T02:21:53;99442.81;;;5.76;100.00
43039;BME280;62252;50.668;19.530;2022-11-11T02:24:54;99433.06;;;5.45;100.00
43039;BME280;62252;50.668;19.530;2022-11-11T02:27:51;99444.84;;;5.21;100.00
43039;BME280;62252;50.668;19.530;2022-11-11T02:30:48;99442.47;;;5.53;100.00
43039;BME280;62252;50.668;19.530;2022-11-11T02:33:40;99443.47;;;5.46;100.00
43039;BME280;62252;50.668;19.530;2022-11-11T02:36:33;99450.16;;;5.58;100.00
43039;BME280;62252;50.668;19.530;2022-11-11T02:39:26;99452.00;;;5.54;100.00
43039;BME280;62252;50.668;19.530;2022-11-11T02:42:23;99449.63;;;5.83;100.00
43039;BME280;62252;50.668;19.530;2022-11-11T02:45:15;99439.03;;;5.50;100.00
43039;BME280;62252;50.668;19.530;2022-11-11T02:48:08;99450.84;;;5.67;100.00
43039;BME280;62252;50.668;19.530;2022-11-11T02:51:00;99431.66;;;5.29;100.00
43039;BME280;62252;50.668;19.530;2022-11-11T02:53:52;99441.81;;;5.83;100.00
43039;BME280;62252;50.668;19.530;2022-11-11T02:56:45;99442.44;;;5.55;100.00
43039;BME280;62252;50.668;19.530;2022-11-11T02:59:51;99439.13;;;5.45;100.00
43039;BME280;62252;50.668;19.530;2022-11-11T03:02:43;99440.41;;;5.67;100.00
43039;BME280;62252;50.668;19.530;2022-11-11T03:05:36;99426.84;;;5.52;100.00
43039;BME280;62252;50.668;19.530;2022-11-11T03:08:28;99431.44;;;5.80;100.00
43039;BME280;62252;50.668;19.530;2022-11-11T03:11:20;99428.34;;;5.62;100.00
43039;BME280;62252;50.668;19.530;2022-11-11T03:14:14;99433.63;;;5.60;100.00
43039;BME280;62252;50.668;19.530;2022-11-11T03:17:09;99442.97;;;5.28;100.00
43039;BME280;62252;50.668;19.530;2022-11-11T03:20:14;99441.56;;;5.54;100.00
43039;BME280;62252;50.668;19.530;2022-11-11T03:23:18;99439.22;;;5.42;100.00
43039;BME280;62252;50.668;19.530;2022-11-11T03:26:10;99448.63;;;5.49;100.00
43039;BME280;62252;50.668;19.530;2022-11-11T03:29:00;99462.38;;;5.13;100.00
43039;BME280;62252;50.668;19.530;2022-11-11T03:31:53;99466.09;;;5.44;100.00
43039;BME280;62252;50.668;19.530;2022-11-11T03:34:47;99475.88;;;4.87;100.00
43039;BME280;62252;50.668;19.530;2022-11-11T03:37:39;99467.78;;;5.02;100.00
43039;BME280;62252;50.668;19.530;2022-11-11T03:40:45;99475.09;;;5.30;100.00
43039;BME280;62252;50.668;19.530;2022-11-11T03:43:39;99463.63;;;5.38;100.00
43039;BME280;62252;50.668;19.530;2022-11-11T03:46:31;99452.69;;;5.20;100.00
43039;BME280;62252;50.668;19.530;2022-11-11T03:49:23;99444.06;;;5.18;100.00
43039;BME280;62252;50.668;19.530;2022-11-11T03:52:21;99443.09;;;5.22;100.00
43039;BME280;62252;50.668;19.530;2022-11-11T03:55:14;99427.81;;;5.46;100.00
43039;BME280;62252;50.668;19.530;2022-11-11T03:58:06;99429.53;;;5.03;100.00
43039;BME280;62252;50.668;19.530;2022-11-11T04:00:58;99439.47;;;4.84;100.00
43039;BME280;62252;50.668;19.530;2022-11-11T04:04:11;99434.09;;;5.36;100.00
43039;BME280;62252;50.668;19.530;2022-11-11T04:07:18;99437.53;;;4.95;100.00
43039;BME280;62252;50.668;19.530;2022-11-11T04:10:22;99438.31;;;4.99;100.00
43039;BME280;62252;50.668;19.530;2022-11-11T04:13:14;99436.69;;;5.38;100.00
43039;BME280;62252;50.668;19.530;2022-11-11T04:16:18;99459.56;;;4.75;100.00
43039;BME280;62252;50.668;19.530;2022-11-11T04:19:10;99455.03;;;4.86;100.00
43039;BME280;62252;50.668;19.530;2022-11-11T04:22:15;99454.78;;;5.01;100.00
43039;BME280;62252;50.668;19.530;2022-11-11T04:25:11;99438.25;;;5.02;100.00
43039;BME280;62252;50.668;19.530;2022-11-11T04:28:14;99448.41;;;5.16;100.00
43039;BME280;62252;50.668;19.530;2022-11-11T04:31:18;99454.09;;;5.36;100.00
43039;BME280;62252;50.668;19.530;2022-11-11T04:34:10;99466.81;;;5.08;100.00
43039;BME280;62252;50.668;19.530;2022-11-11T04:37:00;99465.00;;;5.12;100.00
43039;BME280;62252;50.668;19.530;2022-11-11T04:39:52;99460.44;;;5.24;100.00
43039;BME280;62252;50.668;19.530;2022-11-11T04:43:00;99477.00;;;5.22;100.00
43039;BME280;62252;50.668;19.530;2022-11-11T04:45:51;99480.56;;;5.18;100.00
43039;BME280;62252;50.668;19.530;2022-11-11T04:48:41;99479.63;;;5.20;100.00
43039;BME280;62252;50.668;19.530;2022-11-11T04:51:34;99482.41;;;5.55;100.00
43039;BME280;62252;50.668;19.530;2022-11-11T04:54:38;99495.84;;;4.88;100.00
43039;BME280;62252;50.668;19.530;2022-11-11T04:57:45;99503.34;;;5.07;100.00
43039;BME280;62252;50.668;19.530;2022-11-11T05:00:40;99505.03;;;5.11;100.00
43039;BME280;62252;50.668;19.530;2022-11-11T05:03:36;99495.75;;;4.93;100.00
43039;BME280;62252;50.668;19.530;2022-11-11T05:06:25;99493.63;;;5.16;100.00
43039;BME280;62252;50.668;19.530;2022-11-11T05:09:30;99497.50;;;4.94;100.00
43039;BME280;62252;50.668;19.530;2022-11-11T05:12:22;99507.44;;;4.69;100.00
43039;BME280;62252;50.668;19.530;2022-11-11T05:15:15;99504.84;;;4.69;100.00
43039;BME280;62252;50.668;19.530;2022-11-11T05:18:22;99516.47;;;5.02;100.00
43039;BME280;62252;50.668;19.530;2022-11-11T05:21:29;99514.31;;;4.75;100.00
43039;BME280;62252;50.668;19.530;2022-11-11T05:24:23;99508.75;;;4.96;100.00
43039;BME280;62252;50.668;19.530;2022-11-11T05:27:27;99520.28;;;4.83;100.00
43039;BME280;62252;50.668;19.530;2022-11-11T05:30:20;99517.56;;;4.87;100.00
43039;BME280;62252;50.668;19.530;2022-11-11T05:33:13;99513.72;;;5.08;100.00
43039;BME280;62252;50.668;19.530;2022-11-11T05:36:08;99517.22;;;5.07;100.00
43039;BME280;62252;50.668;19.530;2022-11-11T05:39:00;99517.38;;;5.01;100.00
43039;BME280;62252;50.668;19.530;2022-11-11T05:41:52;99522.41;;;5.10;100.00
43039;BME280;62252;50.668;19.530;2022-11-11T05:44:44;99522.38;;;5.12;100.00
43039;BME280;62252;50.668;19.530;2022-11-11T05:47:37;99524.03;;;5.16;100.00
43039;BME280;62252;50.668;19.530;2022-11-11T05:50:29;99523.34;;;5.06;100.00
43039;BME280;62252;50.668;19.530;2022-11-11T05:53:28;99518.06;;;5.11;100.00
43039;BME280;62252;50.668;19.530;2022-11-11T05:56:20;99520.19;;;4.86;100.00
43039;BME280;62252;50.668;19.530;2022-11-11T05:59:13;99519.03;;;5.03;100.00
43039;BME280;62252;50.668;19.530;2022-11-11T06:02:05;99514.78;;;4.99;100.00
43039;BME280;62252;50.668;19.530;2022-11-11T06:04:57;99513.94;;;5.45;100.00
43039;BME280;62252;50.668;19.530;2022-11-11T06:07:50;99516.88;;;4.76;100.00
43039;BME280;62252;50.668;19.530;2022-11-11T06:10:47;99516.59;;;4.93;100.00
43039;BME280;62252;50.668;19.530;2022-11-11T06:13:40;99514.88;;;4.93;100.00
43039;BME280;62252;50.668;19.530;2022-11-11T06:16:32;99520.34;;;4.78;100.00
43039;BME280;62252;50.668;19.530;2022-11-11T06:19:25;99513.44;;;4.76;100.00
43039;BME280;62252;50.668;19.530;2022-11-11T06:22:18;99520.38;;;4.77;100.00
43039;BME280;62252;50.668;19.530;2022-11-11T06:25:33;99532.38;;;4.85;100.00
43039;BME280;62252;50.668;19.530;2022-11-11T06:28:42;99534.41;;;4.67;100.00
43039;BME280;62252;50.668;19.530;2022-11-11T06:31:35;99543.03;;;4.72;100.00
43039;BME280;62252;50.668;19.530;2022-11-11T06:34:27;99549.06;;;4.74;100.00
43039;BME280;62252;50.668;19.530;2022-11-11T06:37:19;99545.75;;;5.18;100.00
43039;BME280;62252;50.668;19.530;2022-11-11T06:40:14;99557.03;;;5.18;100.00
43039;BME280;62252;50.668;19.530;2022-11-11T06:43:08;99556.66;;;4.87;100.00
43039;BME280;62252;50.668;19.530;2022-11-11T06:46:04;99560.34;;;5.26;100.00
43039;BME280;62252;50.668;19.530;2022-11-11T06:48:57;99542.63;;;4.96;100.00
43039;BME280;62252;50.668;19.530;2022-11-11T06:51:49;99554.75;;;4.97;100.00
43039;BME280;62252;50.668;19.530;2022-11-11T06:54:41;99544.94;;;5.13;100.00
43039;BME280;62252;50.668;19.530;2022-11-11T06:57:34;99544.72;;;5.25;100.00
43039;BME280;62252;50.668;19.530;2022-11-11T07:00:29;99542.25;;;5.19;100.00
43039;BME280;62252;50.668;19.530;2022-11-11T07:03:24;99545.59;;;5.25;100.00
43039;BME280;62252;50.668;19.530;2022-11-11T07:06:16;99547.53;;;5.14;100.00
43039;BME280;62252;50.668;19.530;2022-11-11T07:09:09;99536.72;;;5.37;100.00
43039;BME280;62252;50.668;19.530;2022-11-11T07:12:01;99528.00;;;5.36;100.00
43039;BME280;62252;50.668;19.530;2022-11-11T07:14:53;99527.25;;;5.31;100.00
43039;BME280;62252;50.668;19.530;2022-11-11T07:17:47;99512.56;;;5.70;100.00
43039;BME280;62252;50.668;19.530;2022-11-11T07:20:41;99508.31;;;5.66;100.00
43039;BME280;62252;50.668;19.530;2022-11-11T07:23:33;99504.72;;;5.71;100.00
43039;BME280;62252;50.668;19.530;2022-11-11T07:26:25;99498.16;;;5.93;100.00
43039;BME280;62252;50.668;19.530;2022-11-11T07:29:18;99495.78;;;5.81;100.00
43039;BME280;62252;50.668;19.530;2022-11-11T07:32:10;99490.81;;;6.10;100.00
43039;BME280;62252;50.668;19.530;2022-11-11T07:35:04;99491.97;;;5.97;100.00
43039;BME280;62252;50.668;19.530;2022-11-11T07:38:01;99487.53;;;6.40;100.00
43039;BME280;62252;50.668;19.530;2022-11-11T07:40:56;99490.75;;;6.13;100.00
43039;BME280;62252;50.668;19.530;2022-11-11T07:43:49;99483.59;;;6.23;100.00
43039;BME280;62252;50.668;19.530;2022-11-11T07:46:41;99480.88;;;6.27;100.00
43039;BME280;62252;50.668;19.530;2022-11-11T07:49:34;99484.56;;;6.17;100.00
43039;BME280;62252;50.668;19.530;2022-11-11T07:52:27;99490.50;;;6.25;100.00
43039;BME280;62252;50.668;19.530;2022-11-11T07:55:23;99496.72;;;6.18;100.00
43039;BME280;62252;50.668;19.530;2022-11-11T07:58:16;99496.97;;;6.46;100.00
43039;BME280;62252;50.668;19.530;2022-11-11T08:01:08;99485.75;;;6.42;100.00
43039;BME280;62252;50.668;19.530;2022-11-11T08:04:00;99488.59;;;6.68;100.00
43039;BME280;62252;50.668;19.530;2022-11-11T08:06:52;99489.88;;;6.52;100.00
43039;BME280;62252;50.668;19.530;2022-11-11T08:09:44;99494.63;;;6.70;100.00
43039;BME280;62252;50.668;19.530;2022-11-11T08:12:39;99494.47;;;6.78;100.00
43039;BME280;62252;50.668;19.530;2022-11-11T08:15:43;99500.47;;;6.81;100.00
43039;BME280;62252;50.668;19.530;2022-11-11T08:18:36;99509.44;;;7.05;100.00
43039;BME280;62252;50.668;19.530;2022-11-11T08:21:28;99505.22;;;6.99;100.00
43039;BME280;62252;50.668;19.530;2022-11-11T08:24:19;99510.63;;;6.93;100.00
43039;BME280;62252;50.668;19.530;2022-11-11T08:27:12;99505.47;;;6.90;100.00
43039;BME280;62252;50.668;19.530;2022-11-11T08:30:08;99503.19;;;7.10;100.00
43039;BME280;62252;50.668;19.530;2022-11-11T08:33:02;99504.66;;;7.22;100.00
43039;BME280;62252;50.668;19.530;2022-11-11T08:35:58;99505.69;;;7.16;100.00
43039;BME280;62252;50.668;19.530;2022-11-11T08:38:52;99492.56;;;7.18;100.00
43039;BME280;62252;50.668;19.530;2022-11-11T08:41:44;99488.94;;;7.54;100.00
43039;BME280;62252;50.668;19.530;2022-11-11T08:44:36;99489.72;;;7.57;100.00
43039;BME280;62252;50.668;19.530;2022-11-11T08:47:31;99503.66;;;7.58;100.00
43039;BME280;62252;50.668;19.530;2022-11-11T08:50:24;99500.63;;;7.73;100.00
43039;BME280;62252;50.668;19.530;2022-11-11T08:53:15;99499.75;;;7.72;100.00
43039;BME280;62252;50.668;19.530;2022-11-11T08:56:08;99511.66;;;7.84;100.00
43039;BME280;62252;50.668;19.530;2022-11-11T08:58:59;99515.97;;;7.85;100.00
43039;BME280;62252;50.668;19.530;2022-11-11T09:01:52;99523.25;;;7.75;100.00
43039;BME280;62252;50.668;19.530;2022-11-11T09:04:46;99528.66;;;8.29;100.00
43039;BME280;62252;50.668;19.530;2022-11-11T09:07:39;99511.81;;;8.08;100.00
43039;BME280;62252;50.668;19.530;2022-11-11T09:10:31;99504.06;;;8.05;100.00
43039;BME280;62252;50.668;19.530;2022-11-11T09:13:23;99512.38;;;8.19;100.00
43039;BME280;62252;50.668;19.530;2022-11-11T09:16:15;99520.94;;;8.24;100.00
43039;BME280;62252;50.668;19.530;2022-11-11T09:19:07;99523.09;;;8.10;100.00
43039;BME280;62252;50.668;19.530;2022-11-11T09:22:01;99525.88;;;8.63;100.00
43039;BME280;62252;50.668;19.530;2022-11-11T09:24:53;99523.91;;;8.42;100.00
43039;BME280;62252;50.668;19.530;2022-11-11T09:27:53;99531.16;;;8.33;100.00
43039;BME280;62252;50.668;19.530;2022-11-11T09:30:46;99525.22;;;8.27;100.00
43039;BME280;62252;50.668;19.530;2022-11-11T09:33:41;99527.78;;;8.28;100.00
43039;BME280;62252;50.668;19.530;2022-11-11T09:36:37;99529.13;;;8.43;100.00
43039;BME280;62252;50.668;19.530;2022-11-11T09:39:32;99525.56;;;8.72;100.00
43039;BME280;62252;50.668;19.530;2022-11-11T09:42:32;99538.81;;;8.39;100.00
43039;BME280;62252;50.668;19.530;2022-11-11T09:45:36;99536.41;;;8.61;100.00
43039;BME280;62252;50.668;19.530;2022-11-11T09:48:42;99531.25;;;8.58;100.00
43039;BME280;62252;50.668;19.530;2022-11-11T09:51:44;99529.13;;;8.97;100.00
43039;BME280;62252;50.668;19.530;2022-11-11T09:54:47;99512.63;;;9.18;100.00
43039;BME280;62252;50.668;19.530;2022-11-11T09:57:45;99517.75;;;8.96;100.00
43039;BME280;62252;50.668;19.530;2022-11-11T10:00:45;99504.06;;;9.13;100.00
43039;BME280;62252;50.668;19.530;2022-11-11T10:03:43;99516.63;;;9.29;100.00
43039;BME280;62252;50.668;19.530;2022-11-11T10:06:38;99508.59;;;9.34;100.00
43039;BME280;62252;50.668;19.530;2022-11-11T10:09:39;99497.56;;;9.24;100.00
43039;BME280;62252;50.668;19.530;2022-11-11T10:12:40;99505.50;;;9.23;100.00
43039;BME280;62252;50.668;19.530;2022-11-11T10:15:37;99501.91;;;9.50;100.00
43039;BME280;62252;50.668;19.530;2022-11-11T10:18:46;99495.56;;;9.55;100.00
43039;BME280;62252;50.668;19.530;2022-11-11T10:21:47;99485.94;;;9.56;100.00
43039;BME280;62252;50.668;19.530;2022-11-11T10:24:45;99491.53;;;9.94;100.00
43039;BME280;62252;50.668;19.530;2022-11-11T10:27:44;99488.72;;;9.99;100.00
43039;BME280;62252;50.668;19.530;2022-11-11T10:30:37;99486.78;;;10.04;100.00
43039;BME280;62252;50.668;19.530;2022-11-11T10:33:42;99487.47;;;10.09;100.00
43039;BME280;62252;50.668;19.530;2022-11-11T10:36:42;99482.22;;;9.86;100.00
43039;BME280;62252;50.668;19.530;2022-11-11T10:39:45;99476.28;;;10.04;100.00
43039;BME280;62252;50.668;19.530;2022-11-11T10:42:43;99470.91;;;10.07;100.00
43039;BME280;62252;50.668;19.530;2022-11-11T10:45:40;99466.22;;;9.92;100.00
43039;BME280;62252;50.668;19.530;2022-11-11T10:48:47;99455.19;;;10.05;100.00
43039;BME280;62252;50.668;19.530;2022-11-11T10:51:47;99455.13;;;10.07;100.00
43039;BME280;62252;50.668;19.530;2022-11-11T10:54:45;99448.34;;;10.01;100.00
43039;BME280;62252;50.668;19.530;2022-11-11T10:57:47;99454.16;;;10.09;100.00
43039;BME280;62252;50.668;19.530;2022-11-11T11:00:43;99466.66;;;9.80;100.00
43039;BME280;62252;50.668;19.530;2022-11-11T11:03:39;99469.94;;;10.31;100.00
43039;BME280;62252;50.668;19.530;2022-11-11T11:06:35;99468.50;;;10.01;100.00
43039;BME280;62252;50.668;19.530;2022-11-11T11:09:33;99467.47;;;10.05;100.00
43039;BME280;62252;50.668;19.530;2022-11-11T11:12:33;99464.69;;;9.86;100.00
43039;BME280;62252;50.668;19.530;2022-11-11T11:15:36;99463.75;;;10.10;100.00
43039;BME280;62252;50.668;19.530;2022-11-11T11:18:34;99461.13;;;10.10;100.00
43039;BME280;62252;50.668;19.530;2022-11-11T11:21:47;99469.50;;;10.20;100.00
43039;BME280;62252;50.668;19.530;2022-11-11T11:24:39;99464.44;;;9.92;100.00
43039;BME280;62252;50.668;19.530;2022-11-11T11:27:31;99467.09;;;10.37;100.00
43039;BME280;62252;50.668;19.530;2022-11-11T11:30:25;99452.47;;;10.30;100.00
43039;BME280;62252;50.668;19.530;2022-11-11T11:33:20;99455.97;;;10.07;100.00
43039;BME280;62252;50.668;19.530;2022-11-11T11:36:16;99450.75;;;10.29;100.00
43039;BME280;62252;50.668;19.530;2022-11-11T11:39:08;99438.63;;;10.03;100.00
43039;BME280;62252;50.668;19.530;2022-11-11T11:42:00;99440.34;;;10.26;100.00
43039;BME280;62252;50.668;19.530;2022-11-11T11:44:52;99438.06;;;9.95;100.00
43039;BME280;62252;50.668;19.530;2022-11-11T11:47:50;99444.63;;;10.07;100.00
43039;BME280;62252;50.668;19.530;2022-11-11T11:50:54;99443.13;;;9.77;100.00
43039;BME280;62252;50.668;19.530;2022-11-11T11:53:56;99449.72;;;10.33;100.00
43039;BME280;62252;50.668;19.530;2022-11-11T11:56:58;99445.50;;;10.06;100.00
43039;BME280;62252;50.668;19.530;2022-11-11T11:59:57;99451.13;;;9.97;100.00
43039;BME280;62252;50.668;19.530;2022-11-11T12:03:17;99448.97;;;9.85;100.00
43039;BME280;62252;50.668;19.530;2022-11-11T12:06:26;99449.34;;;10.20;100.00
43039;BME280;62252;50.668;19.530;2022-11-11T12:09:30;99445.06;;;9.95;100.00
43039;BME280;62252;50.668;19.530;2022-11-11T12:12:31;99444.03;;;9.99;100.00
43039;BME280;62252;50.668;19.530;2022-11-11T12:15:32;99439.66;;;9.76;100.00
43039;BME280;62252;50.668;19.530;2022-11-11T12:18:48;99442.00;;;9.84;100.00
43039;BME280;62252;50.668;19.530;2022-11-11T12:21:59;99443.78;;;9.83;100.00
43039;BME280;62252;50.668;19.530;2022-11-11T12:25:04;99443.28;;;9.74;100.00
43039;BME280;62252;50.668;19.530;2022-11-11T12:28:11;99431.47;;;9.84;100.00
43039;BME280;62252;50.668;19.530;2022-11-11T12:31:21;99420.41;;;9.76;100.00
43039;BME280;62252;50.668;19.530;2022-11-11T12:34:24;99426.22;;;10.07;100.00
43039;BME280;62252;50.668;19.530;2022-11-11T12:37:35;99435.59;;;9.68;100.00
43039;BME280;62252;50.668;19.530;2022-11-11T12:40:38;99419.94;;;9.88;100.00
43039;BME280;62252;50.668;19.530;2022-11-11T12:43:36;99422.84;;;10.03;100.00
43039;BME280;62252;50.668;19.530;2022-11-11T12:46:40;99426.06;;;10.10;100.00
43039;BME280;62252;50.668;19.530;2022-11-11T12:49:46;99419.22;;;9.61;100.00
43039;BME280;62252;50.668;19.530;2022-11-11T12:52:55;99419.38;;;9.80;100.00
43039;BME280;62252;50.668;19.530;2022-11-11T12:55:57;99417.38;;;9.63;100.00
43039;BME280;62252;50.668;19.530;2022-11-11T12:58:56;99415.72;;;9.84;100.00
43039;BME280;62252;50.668;19.530;2022-11-11T13:01:56;99410.72;;;9.78;100.00
43039;BME280;62252;50.668;19.530;2022-11-11T13:04:59;99398.47;;;10.00;100.00
43039;BME280;62252;50.668;19.530;2022-11-11T13:08:16;99404.38;;;10.05;100.00
43039;BME280;62252;50.668;19.530;2022-11-11T13:11:17;99398.84;;;9.68;100.00
43039;BME280;62252;50.668;19.530;2022-11-11T13:14:31;99398.81;;;9.91;100.00
43039;BME280;62252;50.668;19.530;2022-11-11T13:17:27;99399.47;;;9.50;100.00
43039;BME280;62252;50.668;19.530;2022-11-11T13:20:34;99399.28;;;9.56;100.00
43039;BME280;62252;50.668;19.530;2022-11-11T13:23:33;99394.44;;;9.68;100.00
43039;BME280;62252;50.668;19.530;2022-11-11T13:26:32;99394.63;;;9.64;100.00
43039;BME280;62252;50.668;19.530;2022-11-11T13:29:52;99412.84;;;9.44;100.00
43039;BME280;62252;50.668;19.530;2022-11-11T13:32:49;99403.53;;;9.58;100.00
43039;BME280;62252;50.668;19.530;2022-11-11T13:35:47;99403.75;;;9.29;100.00
43039;BME280;62252;50.668;19.530;2022-11-11T13:38:48;99402.66;;;9.35;100.00
43039;BME280;62252;50.668;19.530;2022-11-11T13:41:50;99395.72;;;9.34;100.00
43039;BME280;62252;50.668;19.530;2022-11-11T13:44:50;99399.75;;;9.67;100.00
43039;BME280;62252;50.668;19.530;2022-11-11T13:47:45;99393.88;;;9.36;100.00
43039;BME280;62252;50.668;19.530;2022-11-11T13:50:39;99400.66;;;9.41;100.00
43039;BME280;62252;50.668;19.530;2022-11-11T13:53:35;99405.47;;;9.30;100.00
43039;BME280;62252;50.668;19.530;2022-11-11T13:56:36;99403.75;;;9.29;100.00
43039;BME280;62252;50.668;19.530;2022-11-11T13:59:32;99404.16;;;9.42;100.00
43039;BME280;62252;50.668;19.530;2022-11-11T14:02:30;99396.22;;;9.20;100.00
43039;BME280;62252;50.668;19.530;2022-11-11T14:05:23;99397.66;;;9.04;100.00
43039;BME280;62252;50.668;19.530;2022-11-11T14:08:49;99397.06;;;9.21;100.00
43039;BME280;62252;50.668;19.530;2022-11-11T14:11:45;99403.44;;;9.14;100.00
43039;BME280;62252;50.668;19.530;2022-11-11T14:14:54;99406.06;;;9.14;100.00
43039;BME280;62252;50.668;19.530;2022-11-11T14:17:52;99397.56;;;9.07;100.00
43039;BME280;62252;50.668;19.530;2022-11-11T14:20:45;99403.81;;;9.03;100.00
43039;BME280;62252;50.668;19.530;2022-11-11T14:23:40;99417.72;;;8.81;100.00
43039;BME280;62252;50.668;19.530;2022-11-11T14:26:33;99414.53;;;8.97;100.00
43039;BME280;62252;50.668;19.530;2022-11-11T14:29:30;99419.91;;;8.94;100.00
43039;BME280;62252;50.668;19.530;2022-11-11T14:32:36;99414.81;;;8.90;100.00
43039;BME280;62252;50.668;19.530;2022-11-11T14:35:36;99409.78;;;8.58;100.00
43039;BME280;62252;50.668;19.530;2022-11-11T14:38:41;99411.97;;;8.96;100.00
43039;BME280;62252;50.668;19.530;2022-11-11T14:41:47;99403.88;;;8.77;100.00
43039;BME280;62252;50.668;19.530;2022-11-11T14:44:43;99411.63;;;8.80;100.00
43039;BME280;62252;50.668;19.530;2022-11-11T14:47:36;99409.00;;;8.80;100.00
43039;BME280;62252;50.668;19.530;2022-11-11T14:50:46;99418.06;;;8.46;100.00
43039;BME280;62252;50.668;19.530;2022-11-11T14:53:41;99407.16;;;8.58;100.00
43039;BME280;62252;50.668;19.530;2022-11-11T14:56:35;99415.03;;;8.58;100.00
43039;BME280;62252;50.668;19.530;2022-11-11T14:59:28;99410.88;;;8.24;100.00
43039;BME280;62252;50.668;19.530;2022-11-11T15:02:34;99403.78;;;8.54;100.00
43039;BME280;62252;50.668;19.530;2022-11-11T15:05:43;99399.59;;;8.22;100.00
43039;BME280;62252;50.668;19.530;2022-11-11T15:08:47;99397.81;;;8.23;100.00
43039;BME280;62252;50.668;19.530;2022-11-11T15:11:50;99405.09;;;8.13;100.00
43039;BME280;62252;50.668;19.530;2022-11-11T15:14:55;99399.78;;;8.43;100.00
43039;BME280;62252;50.668;19.530;2022-11-11T15:18:02;99401.59;;;8.14;100.00
43039;BME280;62252;50.668;19.530;2022-11-11T15:21:04;99402.50;;;8.13;100.00
43039;BME280;62252;50.668;19.530;2022-11-11T15:24:05;99409.16;;;8.23;100.00
43039;BME280;62252;50.668;19.530;2022-11-11T15:27:11;99414.91;;;8.34;100.00
43039;BME280;62252;50.668;19.530;2022-11-11T15:30:13;99420.22;;;8.05;100.00